Time;durP1;ratioP1;P1;durP2;ratioP2;P2;SDS_P1;SDS_P2;PMS_P1;PMS_P2;Temp;Humidity;BMP_temperature;BMP_pressure;BME280_temperature;BME280_humidity;BME280_pressure;Samples;Min_cycle;Max_cycle;Signal;HPM_P1;HPM_P2
2024/03/06 00:00:07;;;;;;;28.30;21.17;;;7.20;99.90;;;;;;5035531;28;21099;-68
2024/03/06 00:02:35;;;;;;;28.27;21.10;;;7.20;99.90;;;;;;5034512;28;20186;-69
2024/03/06 00:05:01;;;;;;;30.73;21.90;;;7.20;99.90;;;;;;5034662;28;20801;-67
2024/03/06 00:07:27;;;;;;;30.10;21.40;;;7.20;99.90;;;;;;5034388;28;20421;-69
2024/03/06 00:09:53;;;;;;;30.30;20.50;;;7.20;99.90;;;;;;5034117;28;20525;-70
2024/03/06 00:12:19;;;;;;;26.97;20.17;;;7.20;99.90;;;;;;5068306;28;20186;-68
2024/03/06 00:14:44;;;;;;;26.17;19.00;;;7.20;99.90;;;;;;5033990;28;20871;-69
2024/03/06 00:17:10;;;;;;;30.33;20.73;;;7.20;99.90;;;;;;5034925;28;20433;-67
2024/03/06 00:19:36;;;;;;;29.63;20.53;;;7.20;99.90;;;;;;5034955;28;20209;-69
2024/03/06 00:22:02;;;;;;;29.50;20.83;;;7.20;99.90;;;;;;5034299;28;20191;-68
2024/03/06 00:24:28;;;;;;;26.50;19.80;;;7.20;99.90;;;;;;5035462;28;20428;-68
2024/03/06 00:26:53;;;;;;;27.93;20.40;;;7.10;99.90;;;;;;5066987;28;20954;-69
2024/03/06 00:29:19;;;;;;;27.67;21.07;;;7.10;99.90;;;;;;5035413;28;20505;-69
2024/03/06 00:31:46;;;;;;;35.37;23.20;;;7.10;99.90;;;;;;5033094;28;20260;-67
2024/03/06 00:34:13;;;;;;;29.47;21.00;;;7.00;99.90;;;;;;5035873;28;20552;-69
2024/03/06 00:36:43;;;;;;;25.17;19.40;;;7.00;99.90;;;;;;5034091;28;20431;-69
2024/03/06 00:39:09;;;;;;;28.20;19.37;;;7.00;99.90;;;;;;5035403;28;20502;-69
2024/03/06 00:41:36;;;;;;;27.80;20.60;;;6.90;99.90;;;;;;5033835;28;20454;-68
2024/03/06 00:44:02;;;;;;;24.70;19.53;;;6.80;99.90;;;;;;5034040;28;21085;-68
2024/03/06 00:46:27;;;;;;;24.90;18.37;;;6.70;99.90;;;;;;5034106;28;20822;-67
2024/03/06 00:48:53;;;;;;;28.33;20.83;;;6.80;99.90;;;;;;5033701;28;20448;-66
2024/03/06 00:51:19;;;;;;;24.23;18.50;;;6.70;99.90;;;;;;5035589;28;20527;-67
2024/03/06 00:53:45;;;;;;;22.27;17.30;;;6.70;99.90;;;;;;5034705;28;20213;-68
2024/03/06 00:56:11;;;;;;;20.63;15.60;;;6.70;99.90;;;;;;5034521;28;20329;-67
2024/03/06 00:58:37;;;;;;;17.20;14.83;;;6.70;99.90;;;;;;5034225;28;20568;-66
2024/03/06 01:01:02;;;;;;;20.20;13.60;;;6.60;99.90;;;;;;5035121;28;20189;-68
2024/03/06 01:03:28;;;;;;;18.00;12.80;;;6.50;99.90;;;;;;5035005;28;20189;-69
2024/03/06 01:05:54;;;;;;;15.40;11.97;;;6.40;99.90;;;;;;5034737;28;20193;-67
2024/03/06 01:08:22;;;;;;;15.37;11.60;;;6.30;99.90;;;;;;5035216;28;20185;-68
2024/03/06 01:10:47;;;;;;;22.53;13.87;;;6.20;99.90;;;;;;5033943;28;20420;-70
2024/03/06 01:13:13;;;;;;;16.10;13.00;;;6.10;99.90;;;;;;5034922;28;20440;-67
2024/03/06 01:15:39;;;;;;;30.70;12.80;;;6.00;99.90;;;;;;5032687;28;20211;-67
2024/03/06 01:18:04;;;;;;;24.07;13.07;;;5.90;99.90;;;;;;5034358;28;20194;-67
2024/03/06 01:20:30;;;;;;;15.97;11.20;;;5.90;99.90;;;;;;5034594;28;21118;-69
2024/03/06 01:22:56;;;;;;;17.33;14.07;;;5.90;99.90;;;;;;5034457;28;20199;-66
2024/03/06 01:25:22;;;;;;;18.20;13.00;;;5.90;99.90;;;;;;5034316;28;20187;-67
2024/03/06 01:27:50;;;;;;;19.30;13.73;;;5.90;99.90;;;;;;5033852;28;20189;-68
2024/03/06 01:30:16;;;;;;;18.27;14.00;;;5.90;99.90;;;;;;5033455;28;20919;-67
2024/03/06 01:32:42;;;;;;;17.93;13.97;;;5.80;99.90;;;;;;5033712;28;20541;-69
2024/03/06 01:35:08;;;;;;;16.77;13.03;;;5.80;99.90;;;;;;5034476;28;20548;-69
2024/03/06 01:37:34;;;;;;;14.30;12.40;;;5.80;99.90;;;;;;5017517;28;20186;-68
2024/03/06 01:40:00;;;;;;;14.17;12.10;;;5.80;99.90;;;;;;5034198;28;20835;-69
2024/03/06 01:42:26;;;;;;;18.53;13.37;;;5.80;99.90;;;;;;5032817;28;20428;-68
2024/03/06 01:44:52;;;;;;;19.90;16.20;;;5.80;99.90;;;;;;5033433;28;20222;-69
2024/03/06 01:47:18;;;;;;;21.93;15.73;;;5.80;99.90;;;;;;5033673;28;20197;-66
2024/03/06 01:49:44;;;;;;;19.83;14.80;;;5.90;99.90;;;;;;5033659;28;20433;-67
2024/03/06 01:52:13;;;;;;;25.07;17.17;;;6.00;99.90;;;;;;5032407;28;20185;-68
2024/03/06 01:54:39;;;;;;;26.40;19.07;;;6.00;99.90;;;;;;5033218;28;20432;-68
2024/03/06 01:57:06;;;;;;;27.10;19.50;;;6.00;99.90;;;;;;5033653;28;20433;-69
2024/03/06 01:59:33;;;;;;;26.50;18.00;;;6.10;99.90;;;;;;5033296;28;20841;-68
2024/03/06 02:02:01;;;;;;;24.90;18.00;;;6.10;99.90;;;;;;5034155;28;20922;-68
2024/03/06 02:04:28;;;;;;;22.57;16.43;;;6.10;99.90;;;;;;5032976;28;20914;-69
2024/03/06 02:06:54;;;;;;;24.07;16.47;;;6.20;99.90;;;;;;5033674;28;20469;-68
2024/03/06 02:09:20;;;;;;;28.50;19.60;;;6.20;99.90;;;;;;5034130;28;20432;-69
2024/03/06 02:11:46;;;;;;;26.33;17.80;;;6.20;99.90;;;;;;5033369;28;20950;-68
2024/03/06 02:14:12;;;;;;;26.77;18.10;;;6.20;99.90;;;;;;5033650;28;20451;-69
2024/03/06 02:16:41;;;;;;;26.53;18.07;;;6.20;99.90;;;;;;5033202;28;20471;-69
2024/03/06 02:19:08;;;;;;;25.57;17.70;;;6.30;99.90;;;;;;5032594;28;20467;-68
2024/03/06 02:21:34;;;;;;;27.33;19.57;;;6.30;99.90;;;;;;5032918;28;20460;-67
2024/03/06 02:24:00;;;;;;;30.47;20.70;;;6.30;99.90;;;;;;5034211;28;20539;-68
2024/03/06 02:26:26;;;;;;;28.93;19.23;;;6.30;99.90;;;;;;5033182;28;20445;-67
2024/03/06 02:28:53;;;;;;;28.77;20.10;;;6.30;99.90;;;;;;5033138;28;20426;-68
2024/03/06 02:31:20;;;;;;;32.87;21.13;;;6.30;99.90;;;;;;5033363;28;20553;-67
2024/03/06 02:33:47;;;;;;;30.33;21.30;;;6.30;99.90;;;;;;5033053;28;20429;-67
2024/03/06 02:36:19;;;;;;;32.23;20.30;;;6.40;99.90;;;;;;5033860;28;20440;-69
2024/03/06 02:38:45;;;;;;;27.17;18.33;;;6.40;99.90;;;;;;5036715;28;20473;-69
2024/03/06 02:41:13;;;;;;;25.53;18.90;;;6.40;99.90;;;;;;5037131;28;20428;-70
2024/03/06 02:43:39;;;;;;;29.40;19.00;;;6.40;99.90;;;;;;5036544;28;20893;-69
2024/03/06 02:46:05;;;;;;;25.50;19.10;;;6.40;99.90;;;;;;5037287;28;20463;-67
2024/03/06 02:48:31;;;;;;;28.10;19.40;;;6.40;99.90;;;;;;5036594;28;20194;-69
2024/03/06 02:50:57;;;;;;;28.40;19.43;;;6.40;99.90;;;;;;5035676;28;20178;-69
2024/03/06 02:53:23;;;;;;;25.30;18.07;;;6.30;99.90;;;;;;5036246;28;20634;-68
2024/03/06 02:55:49;;;;;;;25.93;17.60;;;6.30;99.90;;;;;;5036799;28;20432;-67
2024/03/06 02:58:16;;;;;;;27.93;18.80;;;6.30;99.90;;;;;;5036579;28;20495;-68
2024/03/06 03:00:43;;;;;;;24.63;16.50;;;6.30;99.90;;;;;;5036354;28;20422;-70
2024/03/06 03:03:09;;;;;;;26.57;17.57;;;6.30;99.90;;;;;;5036700;28;20428;-68
2024/03/06 03:05:36;;;;;;;26.33;17.73;;;6.20;99.90;;;;;;5036173;28;21055;-66
2024/03/06 03:08:03;;;;;;;25.90;17.70;;;6.20;99.90;;;;;;5037259;28;20934;-68
2024/03/06 03:10:29;;;;;;;26.73;18.30;;;6.20;99.90;;;;;;5035640;28;20456;-69
2024/03/06 03:12:55;;;;;;;26.03;18.20;;;6.10;99.90;;;;;;5036637;28;20516;-67
2024/03/06 03:15:21;;;;;;;26.07;17.93;;;6.10;99.90;;;;;;5036602;28;20428;-69
2024/03/06 03:17:47;;;;;;;29.10;18.93;;;6.10;99.90;;;;;;5036493;28;20273;-68
2024/03/06 03:20:13;;;;;;;27.77;18.60;;;6.10;99.90;;;;;;5036148;28;20222;-69
2024/03/06 03:22:39;;;;;;;26.30;17.90;;;6.00;99.90;;;;;;5035794;28;20481;-69
2024/03/06 03:25:10;;;;;;;25.60;16.97;;;6.00;99.90;;;;;;5036364;28;20190;-69
2024/03/06 03:27:43;;;;;;;30.90;20.03;;;6.00;99.90;;;;;;5035623;28;20480;-69
2024/03/06 03:30:12;;;;;;;27.37;17.60;;;5.90;99.90;;;;;;5035750;28;20428;-66
2024/03/06 03:32:38;;;;;;;24.20;16.33;;;5.80;99.90;;;;;;5035472;28;20428;-69
2024/03/06 03:35:05;;;;;;;24.20;17.90;;;5.80;99.90;;;;;;5036654;28;20429;-69
2024/03/06 03:37:31;;;;;;;24.40;16.63;;;5.80;99.90;;;;;;5035412;28;20597;-68
2024/03/06 03:39:56;;;;;;;25.50;17.47;;;5.80;99.90;;;;;;5035415;28;20472;-70
2024/03/06 03:42:22;;;;;;;24.83;18.33;;;5.80;99.90;;;;;;5034759;28;20425;-70
2024/03/06 03:44:48;;;;;;;22.67;15.90;;;5.90;99.90;;;;;;5035886;28;20182;-66
2024/03/06 03:47:13;;;;;;;24.43;17.73;;;5.90;99.90;;;;;;5035520;28;20206;-69
2024/03/06 03:49:39;;;;;;;24.10;17.17;;;6.00;99.90;;;;;;5035048;28;20380;-69
2024/03/06 03:52:05;;;;;;;24.87;17.20;;;6.00;99.90;;;;;;5035868;28;20190;-70
2024/03/06 03:54:31;;;;;;;26.80;18.20;;;6.10;99.90;;;;;;5035538;28;20185;-67
2024/03/06 03:56:59;;;;;;;24.13;17.77;;;6.10;99.90;;;;;;5035315;28;20425;-67
2024/03/06 03:59:25;;;;;;;26.10;17.87;;;6.10;99.90;;;;;;5034765;28;20208;-69
2024/03/06 04:01:50;;;;;;;22.70;16.63;;;6.10;99.90;;;;;;5035380;28;20429;-67
2024/03/06 04:04:16;;;;;;;26.20;18.07;;;6.10;99.90;;;;;;5034513;28;20977;-67
2024/03/06 04:06:42;;;;;;;26.30;17.50;;;6.20;99.90;;;;;;5036004;28;20181;-67
2024/03/06 04:09:10;;;;;;;26.70;18.70;;;6.20;99.90;;;;;;5034559;28;20452;-66
2024/03/06 04:11:37;;;;;;;23.70;17.30;;;6.20;99.90;;;;;;5035010;28;20225;-67
2024/03/06 04:14:03;;;;;;;26.43;18.10;;;6.30;99.90;;;;;;5035262;28;20495;-68
2024/03/06 04:16:29;;;;;;;24.93;17.53;;;6.30;99.90;;;;;;5034527;28;20508;-67
2024/03/06 04:18:55;;;;;;;23.93;17.00;;;6.30;99.90;;;;;;5034987;28;20514;-69
2024/03/06 04:21:22;;;;;;;23.33;15.60;;;6.30;99.90;;;;;;5034340;28;20598;-68
2024/03/06 04:23:48;;;;;;;27.57;18.90;;;6.30;99.90;;;;;;5034217;28;20232;-68
2024/03/06 04:26:14;;;;;;;25.27;17.33;;;6.40;99.90;;;;;;5035061;28;21006;-67
2024/03/06 04:28:40;;;;;;;24.20;17.80;;;6.40;99.90;;;;;;5034441;28;20436;-69
2024/03/06 04:31:05;;;;;;;27.30;18.53;;;6.40;99.90;;;;;;5034924;28;20432;-68
2024/03/06 04:33:31;;;;;;;26.13;19.67;;;6.40;99.90;;;;;;5034301;28;20683;-67
2024/03/06 04:35:57;;;;;;;23.47;17.10;;;6.40;99.90;;;;;;5034513;28;20552;-69
2024/03/06 04:38:23;;;;;;;23.30;19.00;;;6.40;99.90;;;;;;5033888;28;20273;-69
2024/03/06 04:40:48;;;;;;;25.40;18.03;;;6.40;99.90;;;;;;5033724;28;20182;-68
2024/03/06 04:43:14;;;;;;;25.37;18.10;;;6.40;99.90;;;;;;5033869;28;20189;-67
2024/03/06 04:45:39;;;;;;;27.80;19.13;;;6.40;99.90;;;;;;5033968;28;20554;-67
2024/03/06 04:48:06;;;;;;;25.17;17.77;;;6.30;99.90;;;;;;5033834;28;20198;-68
2024/03/06 04:50:32;;;;;;;24.13;17.87;;;6.30;99.90;;;;;;5033828;28;20189;-68
2024/03/06 04:52:59;;;;;;;25.20;18.50;;;6.30;99.90;;;;;;5033342;28;20497;-68
2024/03/06 04:55:25;;;;;;;21.37;16.50;;;6.30;99.90;;;;;;5033168;28;20456;-66
2024/03/06 04:57:55;;;;;;;23.40;17.00;;;6.30;99.90;;;;;;5034205;28;20460;-69
2024/03/06 05:00:21;;;;;;;22.20;16.77;;;6.30;99.90;;;;;;5032143;28;20232;-67
2024/03/06 05:02:49;;;;;;;21.53;15.97;;;6.30;99.90;;;;;;5034037;28;20426;-68
2024/03/06 05:05:15;;;;;;;21.00;15.60;;;6.30;99.90;;;;;;5032743;28;20942;-66
2024/03/06 05:07:40;;;;;;;21.50;15.67;;;6.30;99.90;;;;;;5033756;28;20436;-68
2024/03/06 05:10:09;;;;;;;22.73;15.50;;;6.30;99.90;;;;;;5033664;28;20886;-68
2024/03/06 05:12:35;;;;;;;25.47;18.63;;;6.30;99.90;;;;;;5033251;28;20179;-68
2024/03/06 05:15:01;;;;;;;22.60;15.53;;;6.40;99.90;;;;;;5034243;28;20428;-69
2024/03/06 05:17:27;;;;;;;24.10;16.70;;;6.40;99.90;;;;;;5032894;28;20182;-68
2024/03/06 05:19:54;;;;;;;24.77;16.80;;;6.40;99.90;;;;;;5034086;28;20463;-67
2024/03/06 05:22:21;;;;;;;24.90;17.67;;;6.40;99.90;;;;;;5032202;28;20193;-68
2024/03/06 05:24:47;;;;;;;22.37;17.30;;;6.40;99.90;;;;;;5033454;28;20951;-67
2024/03/06 05:27:16;;;;;;;22.90;16.60;;;6.40;99.90;;;;;;5032881;28;20440;-67
2024/03/06 05:29:42;;;;;;;28.23;18.43;;;6.50;99.90;;;;;;5033711;28;20482;-67
2024/03/06 05:32:08;;;;;;;23.70;16.40;;;6.50;99.90;;;;;;5032946;28;20432;-69
2024/03/06 05:34:34;;;;;;;25.50;16.83;;;6.50;99.90;;;;;;5032433;28;20417;-69
2024/03/06 05:37:01;;;;;;;23.93;17.00;;;6.50;99.90;;;;;;5033301;28;20515;-67
2024/03/06 05:39:27;;;;;;;20.87;15.57;;;6.50;99.90;;;;;;5032743;28;20218;-69
2024/03/06 05:41:55;;;;;;;25.67;16.83;;;6.50;99.90;;;;;;5033686;28;20434;-69
2024/03/06 05:44:21;;;;;;;25.27;16.03;;;6.50;99.90;;;;;;5031946;28;21219;-67
2024/03/06 05:46:47;;;;;;;24.53;17.03;;;6.50;99.90;;;;;;5032986;28;20425;-67
2024/03/06 05:49:13;;;;;;;29.50;19.00;;;6.50;99.90;;;;;;5033297;28;20223;-69
2024/03/06 05:51:39;;;;;;;27.93;18.87;;;6.50;99.90;;;;;;5016203;28;20836;-69
2024/03/06 05:54:08;;;;;;;26.40;17.60;;;6.50;99.90;;;;;;5033654;28;20438;-69
2024/03/06 05:56:38;;;;;;;28.97;18.77;;;6.50;99.90;;;;;;5033603;28;20432;-68
2024/03/06 05:59:07;;;;;;;24.33;16.90;;;6.50;99.90;;;;;;5030010;28;21036;-68
2024/03/06 06:01:34;;;;;;;21.00;16.50;;;6.40;99.90;;;;;;5030697;28;20440;-68
2024/03/06 06:04:00;;;;;;;25.63;17.93;;;6.10;99.90;;;;;;5031455;28;20510;-68
2024/03/06 06:06:26;;;;;;;26.17;17.73;;;6.00;99.90;;;;;;5026754;28;20853;-67
2024/03/06 06:08:52;;;;;;;27.17;17.63;;;5.90;99.90;;;;;;5033095;28;20432;-69
2024/03/06 06:11:17;;;;;;;27.80;18.17;;;5.90;99.90;;;;;;5031783;28;20242;-69
2024/03/06 06:13:43;;;;;;;34.60;18.73;;;5.90;99.90;;;;;;5036094;28;20707;-67
2024/03/06 06:16:09;;;;;;;27.70;18.40;;;5.90;99.90;;;;;;5034484;28;20280;-67
2024/03/06 06:18:34;;;;;;;25.93;17.57;;;5.90;99.90;;;;;;5035747;28;20210;-66
2024/03/06 06:21:00;;;;;;;26.47;16.63;;;5.90;99.90;;;;;;5035485;28;20185;-69
2024/03/06 06:23:26;;;;;;;24.43;17.37;;;5.90;99.90;;;;;;5036778;28;20190;-68
2024/03/06 06:25:52;;;;;;;24.97;16.40;;;5.90;99.90;;;;;;5037037;28;20196;-69
2024/03/06 06:28:18;;;;;;;25.10;17.10;;;5.90;99.90;;;;;;5036183;28;20848;-69
2024/03/06 06:30:43;;;;;;;26.03;17.30;;;5.90;99.90;;;;;;5035813;28;20436;-66
2024/03/06 06:33:09;;;;;;;27.77;18.23;;;6.00;99.90;;;;;;5034030;28;20192;-68
2024/03/06 06:35:35;;;;;;;27.77;17.53;;;5.90;99.90;;;;;;5038575;28;20255;-69
2024/03/06 06:38:01;;;;;;;28.10;18.50;;;6.00;99.90;;;;;;5038153;28;20767;-70
2024/03/06 06:40:27;;;;;;;26.70;19.13;;;5.90;99.90;;;;;;5038318;28;20534;-67
2024/03/06 06:42:53;;;;;;;24.90;17.27;;;5.90;99.90;;;;;;5037880;28;20448;-68
2024/03/06 06:45:20;;;;;;;24.00;16.50;;;6.00;99.90;;;;;;5038125;28;21084;-67
2024/03/06 06:47:47;;;;;;;26.70;18.97;;;5.90;99.90;;;;;;5036947;28;20259;-69
2024/03/06 06:50:13;;;;;;;27.03;17.17;;;5.90;99.90;;;;;;5037141;28;20491;-68
2024/03/06 06:52:39;;;;;;;27.67;19.37;;;5.90;99.90;;;;;;5038502;28;20455;-69
2024/03/06 06:55:05;;;;;;;31.23;20.07;;;6.00;99.90;;;;;;5036537;28;20611;-69
2024/03/06 06:57:32;;;;;;;34.17;21.60;;;6.00;99.90;;;;;;5038463;28;20178;-67
2024/03/06 06:59:59;;;;;;;34.43;22.67;;;6.10;99.90;;;;;;5038008;28;20471;-68
2024/03/06 07:02:25;;;;;;;35.47;22.20;;;6.10;99.90;;;;;;5036741;28;20902;-69
2024/03/06 07:04:51;;;;;;;30.87;19.57;;;6.20;99.90;;;;;;5038557;28;20546;-67
2024/03/06 07:07:17;;;;;;;28.60;17.70;;;6.30;99.90;;;;;;5037400;28;20465;-69
2024/03/06 07:09:43;;;;;;;31.97;20.27;;;6.30;99.90;;;;;;5037662;28;20433;-68
2024/03/06 07:12:09;;;;;;;28.13;20.07;;;6.40;99.90;;;;;;5034199;28;20948;-66
2024/03/06 07:14:35;;;;;;;34.03;22.07;;;6.40;99.90;;;;;;5033978;28;20468;-70
2024/03/06 07:17:01;;;;;;;34.50;22.57;;;6.50;99.90;;;;;;5035269;28;20429;-69
2024/03/06 07:19:26;;;;;;;28.60;19.53;;;6.50;99.90;;;;;;5036423;28;20668;-66
2024/03/06 07:21:53;;;;;;;29.67;20.47;;;6.60;99.90;;;;;;5030682;28;20192;-68
2024/03/06 07:24:19;;;;;;;32.80;20.63;;;6.60;99.90;;;;;;5030975;28;20186;-67
2024/03/06 07:26:45;;;;;;;39.30;24.73;;;6.70;99.90;;;;;;5033937;28;20953;-66
2024/03/06 07:29:14;;;;;;;35.20;22.87;;;6.80;99.90;;;;;;5035324;28;20433;-67
2024/03/06 07:31:43;;;;;;;36.47;24.10;;;6.80;99.90;;;;;;5034947;28;20186;-66
2024/03/06 07:34:10;;;;;;;38.63;22.70;;;6.80;99.90;;;;;;5032871;28;20967;-67
2024/03/06 07:36:35;;;;;;;36.10;23.77;;;6.90;99.90;;;;;;5035409;28;20421;-67
2024/03/06 07:39:03;;;;;;;40.07;25.13;;;6.90;99.90;;;;;;5034942;28;20518;-67
2024/03/06 07:41:28;;;;;;;40.93;24.60;;;7.00;99.90;;;;;;5036557;28;20268;-67
2024/03/06 07:43:54;;;;;;;38.10;24.07;;;7.10;99.90;;;;;;5036625;28;20967;-67
2024/03/06 07:46:20;;;;;;;42.37;26.70;;;7.20;99.90;;;;;;5037302;28;20205;-66
2024/03/06 07:48:45;;;;;;;42.17;26.67;;;7.40;99.90;;;;;;5035506;28;20239;-66
2024/03/06 07:51:11;;;;;;;45.53;27.63;;;7.50;99.90;;;;;;5036382;28;20277;-66
2024/03/06 07:53:37;;;;;;;41.63;26.87;;;7.70;99.90;;;;;;5037519;28;20285;-66
2024/03/06 07:56:03;;;;;;;44.13;25.27;;;7.90;99.90;;;;;;5036112;28;20194;-66
2024/03/06 07:58:29;;;;;;;37.10;24.97;;;8.00;99.90;;;;;;5037530;28;20193;-67
2024/03/06 08:00:56;;;;;;;42.57;26.30;;;8.20;99.90;;;;;;5035858;28;20429;-67
2024/03/06 08:03:24;;;;;;;37.20;23.87;;;8.40;99.90;;;;;;5036020;28;20183;-67
2024/03/06 08:05:52;;;;;;;32.13;21.93;;;8.60;99.90;;;;;;5035647;28;20426;-66
2024/03/06 08:08:18;;;;;;;32.00;21.87;;;8.70;99.90;;;;;;5035034;28;20429;-67
2024/03/06 08:10:44;;;;;;;33.37;21.20;;;8.80;99.90;;;;;;5036233;28;20483;-67
2024/03/06 08:13:10;;;;;;;28.97;18.37;;;9.00;99.90;;;;;;5036406;28;20224;-66
2024/03/06 08:15:36;;;;;;;22.90;17.10;;;9.10;99.90;;;;;;5035020;28;20428;-67
2024/03/06 08:18:03;;;;;;;22.93;16.73;;;9.10;99.90;;;;;;5035184;28;20433;-67
2024/03/06 08:20:29;;;;;;;25.67;18.00;;;9.20;99.90;;;;;;5036370;28;20225;-66
2024/03/06 08:22:56;;;;;;;32.90;21.10;;;9.20;99.90;;;;;;5034903;28;20495;-67
2024/03/06 08:25:22;;;;;;;31.90;22.13;;;9.40;99.90;;;;;;5035384;28;20429;-67
2024/03/06 08:27:48;;;;;;;36.23;23.30;;;9.50;99.90;;;;;;5034615;28;20438;-67
2024/03/06 08:30:14;;;;;;;44.83;23.93;;;9.60;99.90;;;;;;5034915;28;20437;-66
2024/03/06 08:32:40;;;;;;;40.83;23.80;;;9.80;99.90;;;;;;5035931;28;20189;-66
2024/03/06 08:35:12;;;;;;;37.83;24.67;;;9.90;99.90;;;;;;5032879;28;20520;-67
2024/03/06 08:37:41;;;;;;;36.17;23.60;;;10.10;99.90;;;;;;5035674;28;20768;-67
2024/03/06 08:40:10;;;;;;;28.40;20.87;;;10.20;99.90;;;;;;5034233;28;20479;-67
2024/03/06 08:42:36;;;;;;;32.03;22.83;;;10.20;99.90;;;;;;5034986;28;20424;-67
2024/03/06 08:45:02;;;;;;;27.63;20.87;;;10.30;99.90;;;;;;5035100;28;20447;-66
2024/03/06 08:47:28;;;;;;;29.60;21.93;;;10.30;99.90;;;;;;5035350;28;20475;-67
2024/03/06 08:49:53;;;;;;;28.00;20.00;;;10.40;99.90;;;;;;5034899;28;20869;-67
2024/03/06 08:52:20;;;;;;;36.03;23.67;;;10.50;99.90;;;;;;5034118;28;20189;-67
2024/03/06 08:54:46;;;;;;;33.10;23.10;;;10.60;99.90;;;;;;5034599;28;20205;-67
2024/03/06 08:57:12;;;;;;;30.70;21.10;;;10.70;99.90;;;;;;5034526;28;20919;-67
2024/03/06 08:59:38;;;;;;;36.67;24.10;;;10.80;99.90;;;;;;5035416;28;20213;-66
2024/03/06 09:02:15;;;;;;;31.63;21.53;;;10.90;99.90;;;;;;5034425;28;20915;-66
2024/03/06 09:04:41;;;;;;;32.03;22.80;;;11.00;99.90;;;;;;5035658;28;20211;-66
2024/03/06 09:07:07;;;;;;;34.20;23.27;;;11.00;99.90;;;;;;5033948;28;20428;-67
2024/03/06 09:09:34;;;;;;;36.43;23.07;;;11.00;99.90;;;;;;5035829;28;20432;-67
2024/03/06 09:12:18;;;;;;;32.93;22.47;;;11.10;99.90;;;;;;5034061;28;20193;-67
2024/03/06 09:14:44;;;;;;;26.80;20.70;;;11.10;99.90;;;;;;5034147;28;20426;-67
2024/03/06 09:17:14;;;;;;;31.90;21.97;;;11.20;99.90;;;;;;5033483;28;20467;-68
2024/03/06 09:19:40;;;;;;;28.40;22.00;;;11.30;99.90;;;;;;5034453;28;21192;-66
2024/03/06 09:22:06;;;;;;;33.10;22.17;;;11.30;99.90;;;;;;5033417;28;21010;-67
2024/03/06 09:24:32;;;;;;;31.83;21.80;;;11.30;99.90;;;;;;5033875;28;20475;-67
2024/03/06 09:26:58;;;;;;;31.93;22.30;;;11.40;99.90;;;;;;5033067;28;20543;-67
2024/03/06 09:29:23;;;;;;;31.73;22.50;;;11.40;99.90;;;;;;5034304;28;20201;-67
2024/03/06 09:31:49;;;;;;;28.63;20.50;;;11.50;99.90;;;;;;5033922;28;20424;-68
2024/03/06 09:34:15;;;;;;;29.70;21.87;;;11.60;99.90;;;;;;5033338;28;20555;-67
2024/03/06 09:36:45;;;;;;;28.20;20.50;;;11.70;99.90;;;;;;5034558;28;20196;-67
2024/03/06 09:39:12;;;;;;;28.93;20.00;;;11.90;99.90;;;;;;5033670;28;20997;-67
2024/03/06 09:41:41;;;;;;;32.10;20.97;;;12.00;99.90;;;;;;5033484;28;20435;-66
2024/03/06 09:44:07;;;;;;;27.00;18.77;;;12.20;99.90;;;;;;5032407;28;21118;-67
2024/03/06 09:46:34;;;;;;;24.03;17.77;;;12.30;99.90;;;;;;5033923;28;20505;-67
2024/03/06 09:49:01;;;;;;;25.37;18.57;;;12.40;99.90;;;;;;5032837;28;20448;-67
2024/03/06 09:51:28;;;;;;;22.97;17.83;;;12.60;99.90;;;;;;5033087;28;20447;-67
2024/03/06 09:53:54;;;;;;;23.93;18.17;;;12.80;99.90;;;;;;5033109;28;20433;-67
2024/03/06 09:56:20;;;;;;;25.70;19.03;;;12.90;99.90;;;;;;5033580;28;20425;-67
2024/03/06 09:58:46;;;;;;;25.80;17.50;;;13.00;99.90;;;;;;5033218;28;20469;-68
2024/03/06 10:01:14;;;;;;;22.13;16.07;;;13.10;99.90;;;;;;5032552;28;20584;-67
2024/03/06 10:03:40;;;;;;;21.27;15.97;;;13.20;99.90;;;;;;5033564;28;20442;-67
2024/03/06 10:06:07;;;;;;;20.60;15.40;;;13.30;99.90;;;;;;5033067;28;21041;-67
2024/03/06 10:08:33;;;;;;;20.53;16.70;;;13.50;99.90;;;;;;5033192;28;20501;-68
2024/03/06 10:11:00;;;;;;;21.87;16.80;;;13.60;99.90;;;;;;5032719;28;20435;-67
2024/03/06 10:13:26;;;;;;;20.57;15.73;;;13.70;99.90;;;;;;5033353;28;20508;-67
2024/03/06 10:16:00;;;;;;;18.90;14.93;;;13.80;99.90;;;;;;5032113;28;20979;-67
2024/03/06 10:18:30;;;;;;;16.97;13.40;;;13.90;99.90;;;;;;5033083;28;20512;-67
2024/03/06 10:20:56;;;;;;;23.47;16.50;;;14.00;99.90;;;;;;5032767;28;20460;-67
2024/03/06 10:23:23;;;;;;;22.53;15.00;;;14.20;99.90;;;;;;5032695;28;20429;-67
2024/03/06 10:25:52;;;;;;;17.17;13.70;;;14.20;99.90;;;;;;5032984;28;20425;-67
2024/03/06 10:28:20;;;;;;;19.03;14.50;;;14.40;99.90;;;;;;5032647;28;20792;-67
2024/03/06 10:30:46;;;;;;;18.37;14.70;;;14.40;99.90;;;;;;5032838;28;20785;-67
2024/03/06 10:33:16;;;;;;;18.63;14.63;;;14.50;99.90;;;;;;5033004;28;20427;-68
2024/03/06 10:35:44;;;;;;;16.17;13.33;;;14.60;99.90;;;;;;5033254;28;21151;-68
2024/03/06 10:38:13;;;;;;;16.80;13.93;;;14.70;99.90;;;;;;5032512;28;21197;-67
2024/03/06 10:40:41;;;;;;;20.07;14.20;;;14.70;99.90;;;;;;5033057;28;20464;-67
2024/03/06 10:43:08;;;;;;;20.60;13.93;;;14.70;99.90;;;;;;5032408;28;20500;-67
2024/03/06 10:46:04;;;;;;;17.10;13.60;;;14.60;99.90;;;;;;5032465;28;20414;-67
2024/03/06 10:48:31;;;;;;;15.57;13.10;;;14.70;99.90;;;;;;5032186;28;20444;-66
2024/03/06 10:50:59;;;;;;;19.23;13.70;;;14.80;99.90;;;;;;5032175;28;20420;-68
2024/03/06 10:53:26;;;;;;;17.67;13.77;;;14.80;99.90;;;;;;5032542;28;20436;-67
2024/03/06 10:55:52;;;;;;;18.33;15.20;;;14.90;99.90;;;;;;5032610;28;20460;-67
2024/03/06 10:58:19;;;;;;;18.03;14.17;;;14.90;99.90;;;;;;5033098;28;20535;-67
2024/03/06 11:00:47;;;;;;;17.13;14.50;;;14.90;99.90;;;;;;5035835;28;20477;-68
2024/03/06 11:03:13;;;;;;;20.40;14.27;;;14.80;99.90;;;;;;5035619;28;20461;-68
2024/03/06 11:05:40;;;;;;;18.03;13.70;;;14.70;99.90;;;;;;5034651;28;21220;-68
2024/03/06 11:08:11;;;;;;;19.00;13.50;;;14.60;99.90;;;;;;5035943;28;20433;-67
2024/03/06 11:10:39;;;;;;;19.87;14.17;;;14.50;99.90;;;;;;5036003;28;20572;-67
2024/03/06 11:13:21;;;;;;;23.17;17.87;;;14.40;99.90;;;;;;5035177;28;21636;-67
2024/03/06 11:15:47;;;;;;;21.00;17.40;;;14.20;99.90;;;;;;5035203;28;20440;-68
2024/03/06 11:18:28;;;;;;;24.20;16.50;;;14.20;99.90;;;;;;5035215;28;20425;-67
2024/03/06 11:21:03;;;;;;;22.47;19.00;;;14.00;99.90;;;;;;5034764;28;20540;-68
2024/03/06 11:23:29;;;;;;;21.20;15.93;;;13.90;99.90;;;;;;5035865;28;20934;-67
2024/03/06 11:25:58;;;;;;;17.67;14.07;;;13.80;99.90;;;;;;5035417;28;20444;-67
2024/03/06 11:28:32;;;;;;;16.77;13.80;;;13.70;99.90;;;;;;5035213;28;20433;-67
2024/03/06 11:31:03;;;;;;;19.70;14.10;;;13.60;99.90;;;;;;5034573;28;21169;-67
2024/03/06 11:33:39;;;;;;;16.10;13.83;;;13.60;99.90;;;;;;5035152;28;20428;-67
2024/03/06 11:36:30;;;;;;;19.10;14.47;;;13.50;99.90;;;;;;5034733;28;20467;-68
2024/03/06 11:39:08;;;;;;;17.27;13.40;;;13.50;99.90;;;;;;5034479;28;20877;-67
2024/03/06 11:41:45;;;;;;;15.50;13.30;;;13.50;99.90;;;;;;5035300;28;20428;-67
2024/03/06 11:44:21;;;;;;;15.07;12.27;;;13.50;99.90;;;;;;5035949;28;20428;-67
2024/03/06 11:47:07;;;;;;;14.50;12.27;;;13.70;99.90;;;;;;5034506;28;20433;-67
2024/03/06 11:49:36;;;;;;;16.77;13.83;;;13.90;99.90;;;;;;5035059;28;20448;-67
2024/03/06 11:52:10;;;;;;;21.10;16.07;;;14.10;99.90;;;;;;5035356;28;20517;-68
2024/03/06 11:54:36;;;;;;;25.67;20.20;;;14.30;99.90;;;;;;5035137;28;20434;-68
2024/03/06 11:57:04;;;;;;;27.03;20.30;;;14.50;99.90;;;;;;5033775;28;20541;-67
2024/03/06 11:59:32;;;;;;;27.83;19.60;;;14.50;99.90;;;;;;5034764;28;20468;-67
2024/03/06 12:02:03;;;;;;;23.20;18.80;;;14.60;99.90;;;;;;5034274;28;20425;-67
2024/03/06 12:04:31;;;;;;;23.80;18.40;;;14.60;99.90;;;;;;5034445;28;20417;-67
2024/03/06 12:06:59;;;;;;;21.77;16.63;;;14.60;99.90;;;;;;5034655;28;20484;-67
2024/03/06 12:09:26;;;;;;;20.13;16.30;;;14.50;99.90;;;;;;5034647;28;20459;-67
2024/03/06 12:11:53;;;;;;;21.07;16.47;;;14.30;99.90;;;;;;5034448;28;20784;-67
2024/03/06 12:14:20;;;;;;;16.33;13.73;;;14.20;99.90;;;;;;5034155;28;20495;-67
2024/03/06 12:16:59;;;;;;;15.50;12.53;;;14.00;99.90;;;;;;5033852;28;20438;-67
2024/03/06 12:19:28;;;;;;;16.13;13.10;;;13.90;99.90;;;;;;5034328;28;20496;-67
2024/03/06 12:21:54;;;;;;;16.27;13.53;;;13.80;99.90;;;;;;5033377;28;20445;-67
2024/03/06 12:24:20;;;;;;;20.23;15.07;;;13.70;99.90;;;;;;5034740;28;20705;-67
2024/03/06 12:26:52;;;;;;;17.73;14.53;;;13.60;99.90;;;;;;5034196;28;20472;-67
2024/03/06 12:29:19;;;;;;;22.87;17.33;;;13.50;99.90;;;;;;5034546;28;20182;-67
2024/03/06 12:31:45;;;;;;;21.07;16.20;;;13.40;99.90;;;;;;5033468;28;20908;-67